createdAt,value
2023-03-27T00:01:13.021Z,9.43
2023-03-27T00:03:41.277Z,7.28
2023-03-27T00:06:11.504Z,9.35
2023-03-27T00:08:39.151Z,7.13
2023-03-27T00:11:08.152Z,6.97
2023-03-27T00:13:42.441Z,7.50
2023-03-27T00:16:20.135Z,7.88
2023-03-27T00:18:47.965Z,8.18
2023-03-27T00:21:15.014Z,10.23
2023-03-27T00:23:42.469Z,7.10
2023-03-27T00:26:11.828Z,8.77
2023-03-27T00:28:39.719Z,7.97
2023-03-27T00:31:14.449Z,7.47
2023-03-27T00:33:42.452Z,6.90
2023-03-27T00:36:10.473Z,6.80
2023-03-27T00:38:39.731Z,7.75
2023-03-27T00:41:08.374Z,7.03
2023-03-27T00:43:42.364Z,8.27
2023-03-27T00:46:15.529Z,7.40
2023-03-27T00:48:47.249Z,6.93
2023-03-27T00:51:16.257Z,7.07
2023-03-27T00:53:45.796Z,7.38
2023-03-27T00:56:15.724Z,9.13
2023-03-27T00:58:53.744Z,8.35
2023-03-27T01:01:25.322Z,7.68
2023-03-27T01:03:53.910Z,6.95
2023-03-27T01:06:22.918Z,10.45
2023-03-27T01:08:50.297Z,10.32
2023-03-27T01:11:35.238Z,10.65
2023-03-27T01:14:12.149Z,7.22
2023-03-27T01:16:52.602Z,6.78
2023-03-27T01:19:46.600Z,7.00
2023-03-27T01:22:28.773Z,6.82
2023-03-27T01:25:34.032Z,7.15
2023-03-27T01:28:18.577Z,6.43
2023-03-27T01:31:06.343Z,9.52
2023-03-27T01:37:18.410Z,7.47
2023-03-27T01:40:12.806Z,6.75
2023-03-27T01:43:04.599Z,7.13
2023-03-27T01:46:03.867Z,11.35
2023-03-27T01:48:50.703Z,8.70
2023-03-27T01:51:35.494Z,9.63
2023-03-27T01:54:12.331Z,9.93
2023-03-27T01:56:53.745Z,11.95
2023-03-27T01:59:27.719Z,10.23
2023-03-27T02:02:11.871Z,9.52
2023-03-27T02:04:48.984Z,9.10
2023-03-27T02:09:54.144Z,8.75
2023-03-27T02:12:34.951Z,9.07
2023-03-27T02:15:33.390Z,8.02
2023-03-27T02:18:08.057Z,7.57
2023-03-27T02:20:37.391Z,8.55
2023-03-27T02:23:06.446Z,8.68
2023-03-27T02:25:34.265Z,9.68
2023-03-27T02:28:34.160Z,12.60
2023-03-27T02:31:31.807Z,8.40
2023-03-27T02:34:26.308Z,8.32
2023-03-27T02:37:19.354Z,7.93
2023-03-27T02:40:20.139Z,7.93
2023-03-27T02:42:58.096Z,7.80
2023-03-27T02:45:41.153Z,10.85
2023-03-27T02:48:35.846Z,8.35
2023-03-27T02:51:14.181Z,11.43
2023-03-27T02:53:50.638Z,10.32
2023-03-27T02:56:22.274Z,11.07
2023-03-27T02:59:05.497Z,9.40
2023-03-27T03:01:39.110Z,7.22
2023-03-27T03:04:12.019Z,10.45
2023-03-27T03:07:06.587Z,7.18
2023-03-27T03:09:34.907Z,7.95
2023-03-27T03:12:08.888Z,10.90
2023-03-27T03:14:44.243Z,10.10
2023-03-27T03:17:13.436Z,9.57
2023-03-27T03:19:40.871Z,13.93
2023-03-27T03:22:08.535Z,10.05
2023-03-27T03:24:37.459Z,13.70
2023-03-27T03:27:05.835Z,7.82
2023-03-27T03:29:44.348Z,11.50
2023-03-27T03:32:16.867Z,8.85
2023-03-27T03:34:46.752Z,11.27
2023-03-27T03:37:15.536Z,13.57
2023-03-27T03:39:43.045Z,8.85
2023-03-27T03:42:10.338Z,8.98
2023-03-27T03:44:52.130Z,12.52
2023-03-27T03:47:21.232Z,10.57
2023-03-27T03:49:49.822Z,12.88
2023-03-27T03:52:17.223Z,14.10
2023-03-27T03:54:46.709Z,10.32
2023-03-27T03:57:14.203Z,11.45
2023-03-27T03:59:42.982Z,8.57
2023-03-27T04:02:28.765Z,12.40
2023-03-27T04:07:40.403Z,10.15
2023-03-27T04:10:30.820Z,12.10
2023-03-27T04:13:00.527Z,14.98
2023-03-27T04:15:30.932Z,9.27
2023-03-27T04:18:15.361Z,9.05
2023-03-27T04:20:43.669Z,13.85
2023-03-27T04:23:13.980Z,9.43
2023-03-27T04:25:42.208Z,11.45
2023-03-27T04:28:16.416Z,10.35
2023-03-27T04:30:50.509Z,10.75
2023-03-27T04:33:20.590Z,15.48
2023-03-27T04:36:11.830Z,8.23
2023-03-27T04:38:49.246Z,10.00
2023-03-27T04:41:17.870Z,13.27
2023-03-27T04:43:46.116Z,12.85
2023-03-27T04:46:13.697Z,13.57
2023-03-27T04:48:42.645Z,9.70
2023-03-27T04:51:26.748Z,11.20
2023-03-27T04:53:56.462Z,12.35
2023-03-27T04:56:24.993Z,11.55
2023-03-27T04:58:54.807Z,13.27
2023-03-27T05:01:22.914Z,18.58
2023-03-27T05:03:56.747Z,12.25
2023-03-27T05:06:39.273Z,12.38
2023-03-27T05:09:11.775Z,17.38
2023-03-27T05:11:39.080Z,15.90
2023-03-27T05:14:08.997Z,15.20
2023-03-27T05:16:41.285Z,13.23
2023-03-27T05:19:11.299Z,16.35
2023-03-27T05:21:43.973Z,10.30
2023-03-27T05:24:12.044Z,13.88
2023-03-27T05:26:40.158Z,14.63
2023-03-27T05:29:08.733Z,12.27
2023-03-27T05:31:39.955Z,15.52
2023-03-27T05:34:28.542Z,15.18
2023-03-27T05:36:58.940Z,16.48
2023-03-27T05:39:28.537Z,13.70
2023-03-27T05:41:56.285Z,14.85
2023-03-27T05:44:25.551Z,13.48
2023-03-27T05:46:53.073Z,18.42
2023-03-27T05:49:27.384Z,15.80
2023-03-27T05:52:01.154Z,21.67
2023-03-27T05:54:28.235Z,15.25
2023-03-27T05:57:03.943Z,19.98
2023-03-27T05:59:31.095Z,16.52
2023-03-27T06:02:12.660Z,14.10
2023-03-27T06:04:47.974Z,15.63
2023-03-27T06:07:27.723Z,15.95
2023-03-27T06:09:55.162Z,13.10
2023-03-27T06:13:06.568Z,14.50
2023-03-27T06:15:45.295Z,14.32
2023-03-27T06:18:22.579Z,12.80
2023-03-27T06:20:50.353Z,17.35
2023-03-27T06:23:18.127Z,15.90
2023-03-27T06:25:47.372Z,11.55
2023-03-27T06:28:15.231Z,12.60
2023-03-27T06:30:47.836Z,12.25
2023-03-27T06:33:29.863Z,16.13
2023-03-27T06:36:02.787Z,15.27
2023-03-27T06:38:32.491Z,17.33
2023-03-27T06:41:01.379Z,13.68
2023-03-27T06:43:54.753Z,13.38
2023-03-27T06:46:42.599Z,13.45
2023-03-27T06:49:28.316Z,9.98
2023-03-27T06:51:55.777Z,12.40
2023-03-27T06:54:24.314Z,9.27
2023-03-27T06:56:54.190Z,13.20
2023-03-27T06:59:22.720Z,8.02
2023-03-27T07:01:55.992Z,7.60
2023-03-27T07:04:34.857Z,10.63
2023-03-27T07:07:18.530Z,10.55
2023-03-27T07:09:45.858Z,7.43
2023-03-27T07:12:16.121Z,7.80
2023-03-27T07:14:46.212Z,7.53
2023-03-27T07:17:13.355Z,9.55
2023-03-27T07:19:49.464Z,9.33
2023-03-27T07:22:18.603Z,7.70
2023-03-27T07:24:45.989Z,6.20
2023-03-27T07:27:16.432Z,5.97
2023-03-27T07:29:44.657Z,8.82
2023-03-27T07:32:29.642Z,8.52
2023-03-27T07:35:05.506Z,5.25
2023-03-27T07:37:32.828Z,7.75
2023-03-27T07:40:29.407Z,9.10
2023-03-27T07:43:42.433Z,10.05
2023-03-27T07:46:11.001Z,7.72
2023-03-27T07:48:38.612Z,8.07
2023-03-27T07:51:13.920Z,6.43
2023-03-27T07:53:43.703Z,7.57
2023-03-27T07:56:35.862Z,8.93
2023-03-27T07:59:22.002Z,4.90
2023-03-27T08:01:50.809Z,8.13
2023-03-27T08:04:20.103Z,9.68
2023-03-27T08:07:02.158Z,9.90
2023-03-27T08:09:29.868Z,5.18
2023-03-27T08:11:57.695Z,6.78
2023-03-27T08:14:26.345Z,6.53
2023-03-27T08:17:08.566Z,6.45
2023-03-27T08:19:42.624Z,9.55
2023-03-27T08:22:09.927Z,5.85
2023-03-27T08:24:57.212Z,7.10
2023-03-27T08:27:25.927Z,6.00
2023-03-27T08:29:53.229Z,7.82
2023-03-27T08:32:20.728Z,7.18
2023-03-27T08:34:49.777Z,9.60
2023-03-27T08:37:22.022Z,6.05
2023-03-27T08:40:19.504Z,5.60
2023-03-27T08:42:52.291Z,5.93
2023-03-27T08:45:30.103Z,6.68
2023-03-27T08:48:07.351Z,6.45
2023-03-27T08:50:46.249Z,4.97
2023-03-27T08:53:50.712Z,4.43
2023-03-27T08:56:25.466Z,5.43
2023-03-27T08:58:54.486Z,6.78
2023-03-27T09:01:41.200Z,6.28
2023-03-27T09:04:31.694Z,6.63
2023-03-27T09:07:33.846Z,6.18
2023-03-27T09:10:25.508Z,6.75
2023-03-27T09:13:09.061Z,5.93
2023-03-27T09:15:43.333Z,4.30
2023-03-27T09:18:44.164Z,5.45
2023-03-27T09:21:25.830Z,5.75
2023-03-27T09:23:58.903Z,5.65
2023-03-27T09:27:04.518Z,6.72
2023-03-27T09:29:42.994Z,6.22
2023-03-27T09:32:43.750Z,6.60
2023-03-27T09:35:20.482Z,4.13
2023-03-27T09:37:58.584Z,4.68
2023-03-27T09:40:58.103Z,7.70
2023-03-27T09:43:36.403Z,8.50
2023-03-27T09:46:04.528Z,7.47
2023-03-27T09:48:40.145Z,4.25
2023-03-27T09:51:46.600Z,7.63
2023-03-27T09:54:54.170Z,5.13
2023-03-27T09:57:40.666Z,6.80
2023-03-27T10:00:32.054Z,4.75
2023-03-27T10:03:20.569Z,3.47
2023-03-27T10:06:07.045Z,4.85
2023-03-27T10:08:51.380Z,6.30
2023-03-27T10:11:27.693Z,6.82
2023-03-27T10:14:09.673Z,8.63
2023-03-27T10:16:42.367Z,7.00
2023-03-27T10:19:41.442Z,5.25
2023-03-27T10:22:35.488Z,5.30
2023-03-27T10:25:06.874Z,4.80
2023-03-27T10:27:53.973Z,3.70
2023-03-27T10:30:57.233Z,6.93
2023-03-27T10:33:50.234Z,7.80
2023-03-27T10:36:40.582Z,6.53
2023-03-27T10:39:14.847Z,5.57
2023-03-27T10:42:09.921Z,6.00
2023-03-27T10:44:45.916Z,5.07
2023-03-27T10:47:24.995Z,5.78
2023-03-27T10:50:02.434Z,5.65
2023-03-27T10:52:45.118Z,6.03
2023-03-27T10:55:34.576Z,4.72
2023-03-27T10:58:18.818Z,5.60
2023-03-27T11:00:53.319Z,4.25
2023-03-27T11:03:37.667Z,5.80
2023-03-27T11:06:13.915Z,5.90
2023-03-27T11:09:16.183Z,5.78
2023-03-27T11:12:01.702Z,3.38
2023-03-27T11:15:11.921Z,4.68
2023-03-27T11:17:52.051Z,4.38
2023-03-27T11:20:56.581Z,5.53
2023-03-27T11:26:33.940Z,4.75
2023-03-27T11:29:23.045Z,3.67
2023-03-27T11:32:00.169Z,4.38
2023-03-27T11:34:46.365Z,3.47
2023-03-27T11:37:44.544Z,5.10
2023-03-27T11:40:26.961Z,3.22
2023-03-27T11:43:01.494Z,2.70
2023-03-27T11:46:11.707Z,4.28
2023-03-27T11:48:57.975Z,5.03
2023-03-27T11:51:46.643Z,4.53
2023-03-27T11:54:42.128Z,4.60
2023-03-27T11:57:23.466Z,4.20
2023-03-27T12:03:18.925Z,10.68
2023-03-27T12:06:02.157Z,5.00
2023-03-27T12:09:16.087Z,4.63
2023-03-27T12:12:14.508Z,2.50
2023-03-27T12:15:09.981Z,2.38
2023-03-27T12:17:58.817Z,4.38
2023-03-27T12:20:29.082Z,4.30
2023-03-27T12:23:19.210Z,4.00
2023-03-27T12:26:44.225Z,5.25
2023-03-27T12:30:01.421Z,2.67
2023-03-27T12:33:07.633Z,3.30
2023-03-27T12:35:42.024Z,2.90
2023-03-27T12:38:27.417Z,3.10
2023-03-27T12:41:19.434Z,3.92
2023-03-27T12:44:06.777Z,3.22
2023-03-27T12:46:42.604Z,2.95
2023-03-27T12:49:13.144Z,3.42
2023-03-27T12:51:54.619Z,2.20
2023-03-27T12:54:41.022Z,3.35
2023-03-27T12:59:59.148Z,3.65
2023-03-27T13:02:41.805Z,3.20
2023-03-27T13:05:27.897Z,11.85
2023-03-27T13:08:34.330Z,3.42
2023-03-27T13:11:43.895Z,4.95
2023-03-27T13:14:39.361Z,2.92
2023-03-27T13:17:52.272Z,2.35
2023-03-27T13:20:37.949Z,4.35
2023-03-27T13:23:46.583Z,2.17
2023-03-27T13:26:23.651Z,3.95
2023-03-27T13:28:53.489Z,3.85
2023-03-27T13:31:58.288Z,3.00
2023-03-27T13:34:38.791Z,3.30
2023-03-27T13:37:13.988Z,6.10
2023-03-27T13:40:18.465Z,2.40
2023-03-27T13:42:48.706Z,4.40
2023-03-27T13:45:29.655Z,3.72
2023-03-27T13:48:25.586Z,2.85
2023-03-27T13:51:19.890Z,4.28
2023-03-27T13:54:18.357Z,4.20
2023-03-27T13:57:05.745Z,3.90
2023-03-27T14:00:03.207Z,4.63
2023-03-27T14:03:03.018Z,3.60
2023-03-27T14:06:03.984Z,4.35
2023-03-27T14:09:10.815Z,4.95
2023-03-27T14:12:20.208Z,3.35
2023-03-27T14:15:09.947Z,4.35
2023-03-27T14:18:12.161Z,5.18
2023-03-27T14:20:42.450Z,3.40
2023-03-27T14:23:23.026Z,2.22
2023-03-27T14:26:24.840Z,10.18
2023-03-27T14:28:57.500Z,2.78
2023-03-27T14:31:35.857Z,3.17
2023-03-27T14:34:33.300Z,3.67
2023-03-27T14:37:36.545Z,4.28
2023-03-27T14:40:30.832Z,4.10
2023-03-27T14:43:02.264Z,5.38
2023-03-27T14:45:37.517Z,4.50
2023-03-27T14:48:21.558Z,6.65
2023-03-27T14:50:54.096Z,2.63
2023-03-27T14:53:27.117Z,5.75
2023-03-27T14:56:15.924Z,5.57
2023-03-27T14:59:00.925Z,4.80
2023-03-27T15:01:37.888Z,4.30
2023-03-27T15:04:07.388Z,4.25
2023-03-27T15:06:37.517Z,4.25
2023-03-27T15:09:34.323Z,4.65
2023-03-27T15:12:23.265Z,7.32
2023-03-27T15:14:52.993Z,4.22
2023-03-27T15:17:20.849Z,4.07
2023-03-27T15:20:14.412Z,6.60
2023-03-27T15:22:48.851Z,5.68
2023-03-27T15:26:14.928Z,8.27
2023-03-27T15:28:56.508Z,7.30
2023-03-27T15:31:25.656Z,3.65
2023-03-27T15:34:03.332Z,3.20
2023-03-27T15:36:34.861Z,6.95
2023-03-27T15:39:04.273Z,3.67
2023-03-27T15:41:35.105Z,6.10
2023-03-27T15:44:05.171Z,5.32
2023-03-27T15:46:48.754Z,5.95
2023-03-27T15:49:23.273Z,3.33
2023-03-27T15:51:50.978Z,5.10
2023-03-27T15:54:35.532Z,6.45
2023-03-27T15:57:09.931Z,4.85
2023-03-27T15:59:52.489Z,7.00
2023-03-27T16:02:23.877Z,6.93
2023-03-27T16:04:55.054Z,6.45
2023-03-27T16:07:43.766Z,8.60
2023-03-27T16:10:11.389Z,5.47
2023-03-27T16:12:47.419Z,9.10
2023-03-27T16:15:38.313Z,9.32
2023-03-27T16:18:28.080Z,8.10
2023-03-27T16:21:11.290Z,8.90
2023-03-27T16:23:39.326Z,7.90
2023-03-27T16:26:09.328Z,8.38
2023-03-27T16:28:36.731Z,6.78
2023-03-27T16:31:19.018Z,6.10
2023-03-27T16:33:46.508Z,8.35
2023-03-27T16:36:35.612Z,6.30
2023-03-27T16:39:04.273Z,9.15
2023-03-27T16:41:31.519Z,9.50
2023-03-27T16:43:59.067Z,16.23
2023-03-27T16:46:28.525Z,8.57
2023-03-27T16:48:58.985Z,7.03
2023-03-27T16:51:28.395Z,7.10
2023-03-27T16:53:55.995Z,13.35
2023-03-27T16:56:23.657Z,8.50
2023-03-27T16:58:51.132Z,7.60
2023-03-27T17:01:18.245Z,8.20
2023-03-27T17:03:45.984Z,8.25
2023-03-27T17:06:15.062Z,6.95
2023-03-27T17:08:42.420Z,6.25
2023-03-27T17:11:12.998Z,8.00
2023-03-27T17:13:43.316Z,6.82
2023-03-27T17:16:10.778Z,6.10
2023-03-27T17:18:38.287Z,6.88
2023-03-27T17:21:05.577Z,7.53
2023-03-27T17:23:33.151Z,8.38
2023-03-27T17:26:01.825Z,8.13
2023-03-27T17:28:29.882Z,8.52
2023-03-27T17:31:04.437Z,9.55
2023-03-27T17:33:34.101Z,6.07
2023-03-27T17:36:01.399Z,8.30
2023-03-27T17:38:29.502Z,7.57
2023-03-27T17:40:56.731Z,7.15
2023-03-27T17:43:24.100Z,10.55
2023-03-27T17:45:51.427Z,9.05
2023-03-27T17:48:18.879Z,8.32
2023-03-27T17:51:01.202Z,11.15
2023-03-27T17:53:39.503Z,5.43
2023-03-27T17:56:07.839Z,6.65
2023-03-27T17:58:37.009Z,7.75
2023-03-27T18:01:34.161Z,9.40
2023-03-27T18:04:01.675Z,6.20
2023-03-27T18:06:28.928Z,7.88
2023-03-27T18:08:56.463Z,5.47
2023-03-27T18:11:23.626Z,9.60
2023-03-27T18:13:53.153Z,6.93
2023-03-27T18:16:22.224Z,7.25
2023-03-27T18:18:51.053Z,12.80
2023-03-27T18:21:18.144Z,8.68
2023-03-27T18:23:46.696Z,5.88
2023-03-27T18:26:14.780Z,7.07
2023-03-27T18:28:42.687Z,7.07
2023-03-27T18:31:12.029Z,8.00
2023-03-27T18:33:39.754Z,5.45
2023-03-27T18:36:10.816Z,7.00
2023-03-27T18:38:40.261Z,3.40
2023-03-27T18:41:09.068Z,4.35
2023-03-27T18:43:36.571Z,6.70
2023-03-27T18:46:06.194Z,6.90
2023-03-27T18:48:34.321Z,5.18
2023-03-27T18:51:04.058Z,5.13
2023-03-27T18:53:31.524Z,4.75
2023-03-27T18:55:59.356Z,6.72
2023-03-27T18:58:28.679Z,5.82
2023-03-27T19:00:57.559Z,5.25
2023-03-27T19:03:26.920Z,6.50
2023-03-27T19:05:54.566Z,8.25
2023-03-27T19:08:22.122Z,3.83
2023-03-27T19:10:49.619Z,4.30
2023-03-27T19:13:18.658Z,5.25
2023-03-27T19:16:14.346Z,5.10
2023-03-27T19:19:01.982Z,5.18
2023-03-27T19:21:48.369Z,4.87
2023-03-27T19:24:21.382Z,6.50
2023-03-27T19:26:48.862Z,5.53
2023-03-27T19:29:15.938Z,5.10
2023-03-27T19:31:43.319Z,4.45
2023-03-27T19:34:10.529Z,6.43
2023-03-27T19:36:37.860Z,4.63
2023-03-27T19:39:04.870Z,12.18
2023-03-27T19:41:32.265Z,4.88
2023-03-27T19:44:00.339Z,9.88
2023-03-27T19:46:29.206Z,7.25
2023-03-27T19:48:57.076Z,7.20
2023-03-27T19:51:44.734Z,6.50
2023-03-27T19:54:13.944Z,5.90
2023-03-27T19:56:42.044Z,6.07
2023-03-27T19:59:13.084Z,6.75
2023-03-27T20:01:45.429Z,8.32
2023-03-27T20:04:12.561Z,5.63
2023-03-27T20:06:40.154Z,5.15
2023-03-27T20:09:07.197Z,4.38
2023-03-27T20:11:34.597Z,3.55
2023-03-27T20:14:01.933Z,4.90
2023-03-27T20:16:29.537Z,4.28
2023-03-27T20:19:04.208Z,3.92
2023-03-27T20:21:39.898Z,3.35
2023-03-27T20:24:13.547Z,4.03
2023-03-27T20:26:48.399Z,4.28
2023-03-27T20:29:21.936Z,5.60
2023-03-27T20:31:49.666Z,5.35
2023-03-27T20:34:19.324Z,6.22
2023-03-27T20:36:47.673Z,4.85
2023-03-27T20:39:44.525Z,5.70
2023-03-27T20:42:15.354Z,4.93
2023-03-27T20:44:54.871Z,6.13
2023-03-27T20:47:22.677Z,7.00
2023-03-27T20:49:50.047Z,7.32
2023-03-27T20:52:19.624Z,6.45
2023-03-27T20:54:47.908Z,7.53
2023-03-27T20:57:17.949Z,7.63
2023-03-27T20:59:47.492Z,9.00
2023-03-27T21:02:18.237Z,6.80
2023-03-27T21:04:46.537Z,5.82
2023-03-27T21:07:15.785Z,6.90
2023-03-27T21:09:45.163Z,5.82
2023-03-27T21:12:12.524Z,5.82
2023-03-27T21:14:39.805Z,6.63
2023-03-27T21:17:07.158Z,5.38
2023-03-27T21:19:34.604Z,9.85
2023-03-27T21:22:01.981Z,9.57
2023-03-27T21:24:29.187Z,10.82
2023-03-27T21:26:56.586Z,10.27
2023-03-27T21:29:25.147Z,10.52
2023-03-27T21:31:52.863Z,8.68
2023-03-27T21:34:20.055Z,8.50
2023-03-27T21:36:47.430Z,7.13
2023-03-27T21:39:14.507Z,6.65
2023-03-27T21:41:42.228Z,8.48
2023-03-27T21:44:09.218Z,6.10
2023-03-27T21:46:36.648Z,9.07
2023-03-27T21:49:03.957Z,7.03
2023-03-27T21:51:31.767Z,10.52
2023-03-27T21:53:58.746Z,7.00
2023-03-27T21:56:26.215Z,9.65
2023-03-27T21:58:53.281Z,7.65
2023-03-27T22:01:21.016Z,8.38
2023-03-27T22:03:48.103Z,6.88
2023-03-27T22:06:15.637Z,6.60
2023-03-27T22:08:43.542Z,6.93
2023-03-27T22:11:12.137Z,10.73
2023-03-27T22:13:39.859Z,9.35
2023-03-27T22:16:12.996Z,7.43
2023-03-27T22:18:41.315Z,11.30
2023-03-27T22:21:26.704Z,8.57
2023-03-27T22:23:55.832Z,10.10
2023-03-27T22:26:26.301Z,7.38
2023-03-27T22:28:53.683Z,5.85
2023-03-27T22:31:21.968Z,6.03
2023-03-27T22:33:49.434Z,7.85
2023-03-27T22:36:17.057Z,6.50
2023-03-27T22:38:44.086Z,7.20
2023-03-27T22:41:12.850Z,8.93
2023-03-27T22:43:40.280Z,5.57
2023-03-27T22:46:10.452Z,8.38
2023-03-27T22:48:37.792Z,8.32
2023-03-27T22:51:05.713Z,10.15
2023-03-27T22:53:33.318Z,7.25
2023-03-27T22:56:01.390Z,7.35
2023-03-27T22:58:30.622Z,8.68
2023-03-27T23:00:58.254Z,8.73
2023-03-27T23:03:26.796Z,6.90
2023-03-27T23:05:54.894Z,5.43
2023-03-27T23:08:30.288Z,6.03
2023-03-27T23:11:05.918Z,6.50
2023-03-27T23:13:34.846Z,8.88
2023-03-27T23:16:02.596Z,7.25
2023-03-27T23:18:31.779Z,5.22
2023-03-27T23:21:00.969Z,5.72
2023-03-27T23:23:29.951Z,6.38
2023-03-27T23:25:57.939Z,6.47
2023-03-27T23:28:26.453Z,4.68
2023-03-27T23:30:59.189Z,6.15
2023-03-27T23:33:27.673Z,6.88
2023-03-27T23:36:02.610Z,6.25
2023-03-27T23:38:30.396Z,6.78
2023-03-27T23:40:59.239Z,7.68
2023-03-27T23:43:27.620Z,5.22
2023-03-27T23:45:56.102Z,7.30
2023-03-27T23:48:23.692Z,22.75
2023-03-27T23:50:52.076Z,7.47
2023-03-27T23:53:25.542Z,7.43
2023-03-27T23:55:54.222Z,6.93
2023-03-27T23:58:21.299Z,6.95
